Morristown, NJ

8:56 AM EST on February 18, 2019 (GMT -0500)
Sunshine Estate | | Change Station
Active Advisory: Winter Weather Advisory

Elev 492 ft 40.80 °N, 74.49 °W | Updated 1 minute ago

Overcast
Overcast
33.6 °F
Feels Like 34 °F
N
0
Wind Variable Wind from NW
Gusts 0.0 mph

Today
High -- | Low -- °F
--% Chance of Precip.
Yesterday
High -- | Low -- °F
Precip. -- in
Pressure 29.82 in
Visibility 2.5 miles
Clouds Overcast 600 ft
Windchill 34 °F
Dew Point 32 °F
Humidity 95%
Rainfall 0.18 in
Snow Depth Not available.
6:48 AM 5:36 PM
Waxing Gibbous, 98% visible
METAR KMMU 181345Z 00000KT 2 1/2SM BR OVC006 01/01 A2982
Pressure 29.82 in
Visibility 2.5 miles
Clouds Overcast 600 ft
Windchill 34 °F
Dew Point 32 °F
Humidity 95%
Rainfall 0.18 in
Snow Depth Not available.
6:48 AM 5:36 PM
Waxing Gibbous, 98% visible
METAR KMMU 181345Z 00000KT 2 1/2SM BR OVC006 01/01 A2982

Get Your Daily Forecast Email!

Thanks for signing up!

Be on the lookout for a verification email in your inbox.

You'll start receiving severe weather alerts in your inbox..

×

10-Day Weather Forecast

Almanac

Astronomy

Feb. 18, 2019 Rise Set
Actual Time
Civil Twilight
Nautical Twilight
Astronomical Twilight
Moon
Length of Visible Light
Length of Day
Tomorrow will be .
, % of the Moon is Illuminated

Today's Extremes

State Highs State Lows

Community

WunderPhotos

Category 6

Welcome to Category 6. This is the collective home for Weather Underground's featured writeups by Dr. Jeff Masters (right), Bob Henson (left), Chris Burt, and other regular contributors.

Nearby

Air Quality

  Air Quality AQ Index Pollutant
Not available.

Snow Depth

Station Depth Elevation

Earthquake Activity

City Distance Mag. Time & Date
Minimum magnitude displayed is 2.5.

Coastal Water Temperatures

Place Temperature

Stations

Nearby Weather Stations

Station Location Temp. Windchill Dew Point Humidity Wind Precip. Elev Updated Type
                   

Watches & Warnings

Winter Weather Advisory
Issued: 3:48 AM EST Feb. 18, 2019 – National Weather Service

... Winter Weather Advisory remains in effect until 10 am EST this
morning...

* what... freezing rain and drizzle. Additional ice accumulations
of a light glaze.

* Where... the Pennsylvania counties of Berks, Lehigh,
Northampton and upper Bucks, and the New Jersey counties of
Warren, Morris, Hunterdon and Somerset.

* When... until 10:00 am this morning.

* Additional details... slippery roads and walkways are expected.
The hazardous conditions could impact this mornings commute.

Precautionary/preparedness actions...

A Winter Weather Advisory means that periods of snow, sleet or
freezing rain will cause travel difficulties. Expect slippery
roads and limited visibility. Use extra caution if driving.

The latest Road conditions for your state can be obtained by
dialing 5 1 1.